Terminal Aerodrome Forecast
Issued by NWS Cleveland, OH

Home | Current Version | Previous Version | Text Only | Print | Product List | Glossary On
Versions: 1 2 3 4 5 6 7 8 9 10 11 12 13 14 15 16 17 18 19 20 21
000
FTUS41 KCLE 241700
TAFTOL
TAF
KTOL 241720Z 2418/2518 10011G18KT P6SM SCT100 BKN250
      TEMPO 2418/2420 BKN100
     FM250000 10009KT P6SM BKN250
     FM250600 10009KT P6SM BKN080
     FM250900 10007KT P6SM BKN045 OVC080
      TEMPO 2509/2512 5SM -RA BR OVC045
     FM251200 09006KT 5SM -RA SCT012 OVC035
     FM251400 30008KT 3SM -RA BR OVC012=

USA.gov is the U.S. government's official web portal to all federal, state and local government web resources and services.